sensor_id;sensor_type;location;lat;lon;timestamp;P1;durP1;ratioP1;P2;durP2;ratioP2
34832;SDS011;55941;50.800;4.342;2023-05-09T00:00:17;11.75;;;7.10;;
34832;SDS011;55941;50.800;4.342;2023-05-09T00:02:44;12.52;;;6.38;;
34832;SDS011;55941;50.800;4.342;2023-05-09T00:05:10;12.52;;;6.70;;
34832;SDS011;55941;50.800;4.342;2023-05-09T00:07:37;12.93;;;7.13;;
34832;SDS011;55941;50.800;4.342;2023-05-09T00:10:03;11.10;;;6.40;;
34832;SDS011;55941;50.800;4.342;2023-05-09T00:12:29;10.98;;;6.13;;
34832;SDS011;55941;50.800;4.342;2023-05-09T00:14:55;12.45;;;6.43;;
34832;SDS011;55941;50.800;4.342;2023-05-09T00:17:22;13.27;;;6.82;;
34832;SDS011;55941;50.800;4.342;2023-05-09T00:19:49;10.93;;;6.40;;
34832;SDS011;55941;50.800;4.342;2023-05-09T00:22:17;11.27;;;6.60;;
34832;SDS011;55941;50.800;4.342;2023-05-09T00:24:45;12.07;;;6.53;;
34832;SDS011;55941;50.800;4.342;2023-05-09T00:27:17;11.70;;;6.72;;
34832;SDS011;55941;50.800;4.342;2023-05-09T00:29:43;11.50;;;6.70;;
34832;SDS011;55941;50.800;4.342;2023-05-09T00:32:09;14.35;;;7.50;;
34832;SDS011;55941;50.800;4.342;2023-05-09T00:34:35;16.02;;;8.50;;
34832;SDS011;55941;50.800;4.342;2023-05-09T00:37:04;15.23;;;7.57;;
34832;SDS011;55941;50.800;4.342;2023-05-09T00:39:31;12.18;;;7.07;;
34832;SDS011;55941;50.800;4.342;2023-05-09T00:41:56;14.80;;;7.32;;
34832;SDS011;55941;50.800;4.342;2023-05-09T00:44:22;13.48;;;7.22;;
34832;SDS011;55941;50.800;4.342;2023-05-09T00:46:48;10.70;;;7.20;;
34832;SDS011;55941;50.800;4.342;2023-05-09T00:49:14;13.88;;;7.43;;
34832;SDS011;55941;50.800;4.342;2023-05-09T00:51:40;9.13;;;6.55;;
34832;SDS011;55941;50.800;4.342;2023-05-09T00:54:06;10.85;;;7.18;;
34832;SDS011;55941;50.800;4.342;2023-05-09T00:56:32;10.65;;;6.88;;
34832;SDS011;55941;50.800;4.342;2023-05-09T00:58:58;11.98;;;7.10;;
34832;SDS011;55941;50.800;4.342;2023-05-09T01:01:25;13.13;;;6.65;;
34832;SDS011;55941;50.800;4.342;2023-05-09T01:03:51;13.05;;;7.20;;
34832;SDS011;55941;50.800;4.342;2023-05-09T01:09:07;18.42;;;7.10;;
34832;SDS011;55941;50.800;4.342;2023-05-09T01:20:42;11.82;;;6.72;;
34832;SDS011;55941;50.800;4.342;2023-05-09T01:23:27;15.25;;;7.20;;
34832;SDS011;55941;50.800;4.342;2023-05-09T01:32:06;16.83;;;7.20;;
34832;SDS011;55941;50.800;4.342;2023-05-09T01:34:34;12.20;;;7.25;;
34832;SDS011;55941;50.800;4.342;2023-05-09T01:37:04;12.32;;;7.03;;
34832;SDS011;55941;50.800;4.342;2023-05-09T01:39:32;17.45;;;7.90;;
34832;SDS011;55941;50.800;4.342;2023-05-09T01:41:59;12.57;;;6.80;;
34832;SDS011;55941;50.800;4.342;2023-05-09T01:44:31;11.15;;;7.35;;
34832;SDS011;55941;50.800;4.342;2023-05-09T01:47:01;18.45;;;7.80;;
34832;SDS011;55941;50.800;4.342;2023-05-09T01:49:28;14.35;;;6.95;;
34832;SDS011;55941;50.800;4.342;2023-05-09T01:51:57;13.80;;;7.13;;
34832;SDS011;55941;50.800;4.342;2023-05-09T01:54:24;14.00;;;7.20;;
34832;SDS011;55941;50.800;4.342;2023-05-09T01:56:52;12.38;;;7.00;;
34832;SDS011;55941;50.800;4.342;2023-05-09T01:59:19;16.65;;;7.35;;
34832;SDS011;55941;50.800;4.342;2023-05-09T02:01:47;11.90;;;7.38;;
34832;SDS011;55941;50.800;4.342;2023-05-09T02:04:14;17.20;;;7.32;;
34832;SDS011;55941;50.800;4.342;2023-05-09T02:06:45;15.48;;;6.90;;
34832;SDS011;55941;50.800;4.342;2023-05-09T02:09:14;16.80;;;7.38;;
34832;SDS011;55941;50.800;4.342;2023-05-09T02:11:42;15.95;;;7.47;;
34832;SDS011;55941;50.800;4.342;2023-05-09T02:14:09;14.55;;;6.90;;
34832;SDS011;55941;50.800;4.342;2023-05-09T02:16:34;12.10;;;7.13;;
34832;SDS011;55941;50.800;4.342;2023-05-09T02:19:00;15.18;;;6.78;;
34832;SDS011;55941;50.800;4.342;2023-05-09T02:21:26;13.65;;;7.70;;
34832;SDS011;55941;50.800;4.342;2023-05-09T02:23:52;12.82;;;7.47;;
34832;SDS011;55941;50.800;4.342;2023-05-09T02:26:18;11.68;;;6.82;;
34832;SDS011;55941;50.800;4.342;2023-05-09T02:28:44;13.02;;;7.07;;
34832;SDS011;55941;50.800;4.342;2023-05-09T02:31:12;15.18;;;7.35;;
34832;SDS011;55941;50.800;4.342;2023-05-09T02:33:38;10.40;;;6.80;;
34832;SDS011;55941;50.800;4.342;2023-05-09T02:36:08;16.02;;;7.20;;
34832;SDS011;55941;50.800;4.342;2023-05-09T02:38:34;13.80;;;6.60;;
34832;SDS011;55941;50.800;4.342;2023-05-09T02:41:00;13.57;;;7.18;;
34832;SDS011;55941;50.800;4.342;2023-05-09T02:43:26;13.18;;;7.15;;
34832;SDS011;55941;50.800;4.342;2023-05-09T02:45:51;16.58;;;6.88;;
34832;SDS011;55941;50.800;4.342;2023-05-09T02:48:17;11.55;;;7.15;;
34832;SDS011;55941;50.800;4.342;2023-05-09T02:50:43;12.15;;;6.90;;
34832;SDS011;55941;50.800;4.342;2023-05-09T02:53:10;12.60;;;6.78;;
34832;SDS011;55941;50.800;4.342;2023-05-09T02:55:35;15.45;;;7.28;;
34832;SDS011;55941;50.800;4.342;2023-05-09T02:58:02;16.05;;;7.45;;
34832;SDS011;55941;50.800;4.342;2023-05-09T03:00:28;13.82;;;7.60;;
34832;SDS011;55941;50.800;4.342;2023-05-09T03:02:54;10.23;;;7.05;;
34832;SDS011;55941;50.800;4.342;2023-05-09T03:05:20;12.93;;;6.88;;
34832;SDS011;55941;50.800;4.342;2023-05-09T03:07:46;17.27;;;7.63;;
34832;SDS011;55941;50.800;4.342;2023-05-09T03:10:12;14.32;;;8.43;;
34832;SDS011;55941;50.800;4.342;2023-05-09T03:12:38;12.07;;;7.97;;
34832;SDS011;55941;50.800;4.342;2023-05-09T03:15:06;12.07;;;7.53;;
34832;SDS011;55941;50.800;4.342;2023-05-09T03:17:33;14.45;;;8.13;;
34832;SDS011;55941;50.800;4.342;2023-05-09T03:19:59;14.25;;;8.27;;
34832;SDS011;55941;50.800;4.342;2023-05-09T03:22:25;11.10;;;7.30;;
34832;SDS011;55941;50.800;4.342;2023-05-09T03:24:52;15.70;;;7.90;;
34832;SDS011;55941;50.800;4.342;2023-05-09T03:27:18;13.65;;;8.05;;
34832;SDS011;55941;50.800;4.342;2023-05-09T03:29:43;12.63;;;7.88;;
34832;SDS011;55941;50.800;4.342;2023-05-09T03:32:09;13.43;;;7.80;;
34832;SDS011;55941;50.800;4.342;2023-05-09T03:34:35;16.15;;;7.78;;
34832;SDS011;55941;50.800;4.342;2023-05-09T03:37:01;13.13;;;7.68;;
34832;SDS011;55941;50.800;4.342;2023-05-09T03:39:27;14.20;;;7.88;;
34832;SDS011;55941;50.800;4.342;2023-05-09T03:41:53;14.70;;;7.35;;
34832;SDS011;55941;50.800;4.342;2023-05-09T03:44:19;12.68;;;7.78;;
34832;SDS011;55941;50.800;4.342;2023-05-09T03:46:45;17.85;;;7.57;;
34832;SDS011;55941;50.800;4.342;2023-05-09T03:49:11;13.07;;;7.75;;
34832;SDS011;55941;50.800;4.342;2023-05-09T03:51:37;17.02;;;8.05;;
34832;SDS011;55941;50.800;4.342;2023-05-09T03:54:02;14.23;;;8.10;;
34832;SDS011;55941;50.800;4.342;2023-05-09T03:56:29;12.98;;;7.68;;
34832;SDS011;55941;50.800;4.342;2023-05-09T03:58:54;14.65;;;7.78;;
34832;SDS011;55941;50.800;4.342;2023-05-09T04:01:20;15.27;;;8.05;;
34832;SDS011;55941;50.800;4.342;2023-05-09T04:03:46;19.05;;;8.30;;
34832;SDS011;55941;50.800;4.342;2023-05-09T04:06:12;14.55;;;8.57;;
34832;SDS011;55941;50.800;4.342;2023-05-09T04:08:38;16.40;;;7.88;;
34832;SDS011;55941;50.800;4.342;2023-05-09T04:11:04;12.60;;;7.55;;
34832;SDS011;55941;50.800;4.342;2023-05-09T04:13:30;15.77;;;8.30;;
34832;SDS011;55941;50.800;4.342;2023-05-09T04:15:57;19.35;;;8.52;;
34832;SDS011;55941;50.800;4.342;2023-05-09T04:18:22;12.55;;;8.00;;
34832;SDS011;55941;50.800;4.342;2023-05-09T04:20:48;17.73;;;8.18;;
34832;SDS011;55941;50.800;4.342;2023-05-09T04:23:14;12.07;;;7.75;;
34832;SDS011;55941;50.800;4.342;2023-05-09T04:25:39;9.00;;;7.30;;
34832;SDS011;55941;50.800;4.342;2023-05-09T04:28:05;13.25;;;7.75;;
34832;SDS011;55941;50.800;4.342;2023-05-09T04:30:31;11.32;;;7.72;;
34832;SDS011;55941;50.800;4.342;2023-05-09T04:32:57;11.18;;;7.43;;
34832;SDS011;55941;50.800;4.342;2023-05-09T04:35:22;11.52;;;6.82;;
34832;SDS011;55941;50.800;4.342;2023-05-09T04:37:48;13.23;;;7.80;;
34832;SDS011;55941;50.800;4.342;2023-05-09T04:40:14;10.15;;;7.13;;
34832;SDS011;55941;50.800;4.342;2023-05-09T04:42:40;12.20;;;7.25;;
34832;SDS011;55941;50.800;4.342;2023-05-09T04:45:06;12.70;;;7.43;;
34832;SDS011;55941;50.800;4.342;2023-05-09T04:47:33;17.23;;;7.30;;
34832;SDS011;55941;50.800;4.342;2023-05-09T04:50:02;10.30;;;7.55;;
34832;SDS011;55941;50.800;4.342;2023-05-09T04:52:29;9.90;;;7.28;;
34832;SDS011;55941;50.800;4.342;2023-05-09T04:54:55;11.73;;;7.55;;
34832;SDS011;55941;50.800;4.342;2023-05-09T04:57:20;10.88;;;6.45;;
34832;SDS011;55941;50.800;4.342;2023-05-09T04:59:46;14.77;;;6.82;;
34832;SDS011;55941;50.800;4.342;2023-05-09T05:02:12;11.18;;;7.55;;
34832;SDS011;55941;50.800;4.342;2023-05-09T05:04:38;10.30;;;7.68;;
34832;SDS011;55941;50.800;4.342;2023-05-09T05:07:04;12.27;;;8.10;;
34832;SDS011;55941;50.800;4.342;2023-05-09T05:09:30;14.85;;;9.30;;
34832;SDS011;55941;50.800;4.342;2023-05-09T05:11:56;14.55;;;9.15;;
34832;SDS011;55941;50.800;4.342;2023-05-09T05:14:22;16.23;;;9.18;;
34832;SDS011;55941;50.800;4.342;2023-05-09T05:16:48;14.82;;;8.90;;
34832;SDS011;55941;50.800;4.342;2023-05-09T05:19:14;15.50;;;9.52;;
34832;SDS011;55941;50.800;4.342;2023-05-09T05:21:39;16.77;;;9.80;;
34832;SDS011;55941;50.800;4.342;2023-05-09T05:24:06;14.75;;;9.20;;
34832;SDS011;55941;50.800;4.342;2023-05-09T05:26:32;16.40;;;9.68;;
34832;SDS011;55941;50.800;4.342;2023-05-09T05:28:58;15.50;;;9.48;;
34832;SDS011;55941;50.800;4.342;2023-05-09T05:31:24;14.13;;;9.20;;
34832;SDS011;55941;50.800;4.342;2023-05-09T05:33:50;14.48;;;9.75;;
34832;SDS011;55941;50.800;4.342;2023-05-09T05:36:16;14.15;;;8.93;;
34832;SDS011;55941;50.800;4.342;2023-05-09T05:38:42;18.80;;;8.88;;
34832;SDS011;55941;50.800;4.342;2023-05-09T05:41:08;13.07;;;8.55;;
34832;SDS011;55941;50.800;4.342;2023-05-09T05:43:36;13.45;;;8.27;;
34832;SDS011;55941;50.800;4.342;2023-05-09T05:46:02;17.65;;;8.07;;
34832;SDS011;55941;50.800;4.342;2023-05-09T05:48:28;13.77;;;8.05;;
34832;SDS011;55941;50.800;4.342;2023-05-09T05:50:54;27.52;;;9.15;;
34832;SDS011;55941;50.800;4.342;2023-05-09T05:53:21;13.57;;;8.15;;
34832;SDS011;55941;50.800;4.342;2023-05-09T05:55:47;14.88;;;8.15;;
34832;SDS011;55941;50.800;4.342;2023-05-09T05:58:13;15.85;;;8.00;;
34832;SDS011;55941;50.800;4.342;2023-05-09T06:00:39;8.52;;;6.80;;
34832;SDS011;55941;50.800;4.342;2023-05-09T06:03:05;8.07;;;6.65;;
34832;SDS011;55941;50.800;4.342;2023-05-09T06:05:31;8.68;;;6.72;;
34832;SDS011;55941;50.800;4.342;2023-05-09T06:07:57;9.55;;;6.80;;
34832;SDS011;55941;50.800;4.342;2023-05-09T06:10:23;17.38;;;7.32;;
34832;SDS011;55941;50.800;4.342;2023-05-09T06:12:49;12.43;;;6.90;;
34832;SDS011;55941;50.800;4.342;2023-05-09T06:15:15;9.05;;;6.57;;
34832;SDS011;55941;50.800;4.342;2023-05-09T06:17:41;11.45;;;6.75;;
34832;SDS011;55941;50.800;4.342;2023-05-09T06:20:08;11.75;;;6.15;;
34832;SDS011;55941;50.800;4.342;2023-05-09T06:22:34;12.52;;;6.55;;
34832;SDS011;55941;50.800;4.342;2023-05-09T06:25:00;11.45;;;6.38;;
34832;SDS011;55941;50.800;4.342;2023-05-09T06:27:26;11.75;;;6.03;;
34832;SDS011;55941;50.800;4.342;2023-05-09T06:29:52;15.65;;;7.00;;
34832;SDS011;55941;50.800;4.342;2023-05-09T06:32:18;10.30;;;5.80;;
34832;SDS011;55941;50.800;4.342;2023-05-09T06:34:45;7.72;;;5.70;;
34832;SDS011;55941;50.800;4.342;2023-05-09T06:37:10;7.45;;;5.53;;
34832;SDS011;55941;50.800;4.342;2023-05-09T06:39:36;9.85;;;6.03;;
34832;SDS011;55941;50.800;4.342;2023-05-09T06:42:02;8.70;;;6.10;;
34832;SDS011;55941;50.800;4.342;2023-05-09T06:44:28;10.50;;;6.05;;
34832;SDS011;55941;50.800;4.342;2023-05-09T06:46:55;8.07;;;5.78;;
34832;SDS011;55941;50.800;4.342;2023-05-09T06:49:21;7.47;;;5.55;;
34832;SDS011;55941;50.800;4.342;2023-05-09T06:51:47;10.82;;;5.43;;
34832;SDS011;55941;50.800;4.342;2023-05-09T06:54:13;9.52;;;5.90;;
34832;SDS011;55941;50.800;4.342;2023-05-09T06:56:41;10.27;;;6.60;;
34832;SDS011;55941;50.800;4.342;2023-05-09T06:59:07;10.90;;;6.03;;
34832;SDS011;55941;50.800;4.342;2023-05-09T07:01:37;6.65;;;5.50;;
34832;SDS011;55941;50.800;4.342;2023-05-09T07:04:04;7.80;;;5.50;;
34832;SDS011;55941;50.800;4.342;2023-05-09T07:06:30;9.57;;;5.55;;
34832;SDS011;55941;50.800;4.342;2023-05-09T07:08:55;9.13;;;5.78;;
34832;SDS011;55941;50.800;4.342;2023-05-09T07:11:21;9.50;;;5.40;;
34832;SDS011;55941;50.800;4.342;2023-05-09T07:13:47;12.40;;;6.18;;
34832;SDS011;55941;50.800;4.342;2023-05-09T07:16:13;10.13;;;5.60;;
34832;SDS011;55941;50.800;4.342;2023-05-09T07:18:39;7.95;;;5.25;;
34832;SDS011;55941;50.800;4.342;2023-05-09T07:21:05;8.73;;;5.68;;
34832;SDS011;55941;50.800;4.342;2023-05-09T07:23:31;13.07;;;6.47;;
34832;SDS011;55941;50.800;4.342;2023-05-09T07:25:57;9.07;;;5.65;;
34832;SDS011;55941;50.800;4.342;2023-05-09T07:28:23;14.80;;;6.03;;
34832;SDS011;55941;50.800;4.342;2023-05-09T07:30:50;7.47;;;5.65;;
34832;SDS011;55941;50.800;4.342;2023-05-09T07:33:16;10.07;;;5.32;;
34832;SDS011;55941;50.800;4.342;2023-05-09T07:35:41;15.90;;;5.90;;
34832;SDS011;55941;50.800;4.342;2023-05-09T07:38:07;7.13;;;5.45;;
34832;SDS011;55941;50.800;4.342;2023-05-09T07:40:36;11.75;;;5.72;;
34832;SDS011;55941;50.800;4.342;2023-05-09T07:43:03;8.90;;;5.47;;
34832;SDS011;55941;50.800;4.342;2023-05-09T07:45:31;8.55;;;5.80;;
34832;SDS011;55941;50.800;4.342;2023-05-09T07:47:58;9.00;;;5.30;;
34832;SDS011;55941;50.800;4.342;2023-05-09T07:50:24;13.80;;;6.03;;
34832;SDS011;55941;50.800;4.342;2023-05-09T07:52:50;8.20;;;5.75;;
34832;SDS011;55941;50.800;4.342;2023-05-09T07:55:16;8.68;;;5.20;;
34832;SDS011;55941;50.800;4.342;2023-05-09T07:57:42;13.02;;;5.60;;
34832;SDS011;55941;50.800;4.342;2023-05-09T08:00:09;5.80;;;4.70;;
34832;SDS011;55941;50.800;4.342;2023-05-09T08:02:35;10.77;;;5.15;;
34832;SDS011;55941;50.800;4.342;2023-05-09T08:05:01;11.25;;;5.47;;
34832;SDS011;55941;50.800;4.342;2023-05-09T08:07:27;10.52;;;5.70;;
34832;SDS011;55941;50.800;4.342;2023-05-09T08:09:53;14.10;;;6.22;;
34832;SDS011;55941;50.800;4.342;2023-05-09T08:12:19;8.38;;;5.35;;
34832;SDS011;55941;50.800;4.342;2023-05-09T08:14:45;14.85;;;5.80;;
34832;SDS011;55941;50.800;4.342;2023-05-09T08:17:11;10.80;;;5.90;;
34832;SDS011;55941;50.800;4.342;2023-05-09T08:19:36;8.07;;;5.80;;
34832;SDS011;55941;50.800;4.342;2023-05-09T08:22:02;11.18;;;6.30;;
34832;SDS011;55941;50.800;4.342;2023-05-09T08:24:28;11.00;;;4.97;;
34832;SDS011;55941;50.800;4.342;2023-05-09T08:26:56;10.23;;;5.40;;
34832;SDS011;55941;50.800;4.342;2023-05-09T08:29:22;10.90;;;6.03;;
34832;SDS011;55941;50.800;4.342;2023-05-09T08:31:48;10.63;;;5.53;;
34832;SDS011;55941;50.800;4.342;2023-05-09T08:34:15;10.93;;;5.70;;
34832;SDS011;55941;50.800;4.342;2023-05-09T08:36:41;10.10;;;5.95;;
34832;SDS011;55941;50.800;4.342;2023-05-09T08:39:09;9.80;;;5.97;;
34832;SDS011;55941;50.800;4.342;2023-05-09T08:41:35;7.68;;;5.25;;
34832;SDS011;55941;50.800;4.342;2023-05-09T08:44:03;9.27;;;5.30;;
34832;SDS011;55941;50.800;4.342;2023-05-09T08:46:30;11.18;;;5.18;;
34832;SDS011;55941;50.800;4.342;2023-05-09T08:49:03;11.45;;;5.75;;
34832;SDS011;55941;50.800;4.342;2023-05-09T08:51:33;11.38;;;5.68;;
34832;SDS011;55941;50.800;4.342;2023-05-09T08:53:59;8.95;;;5.20;;
34832;SDS011;55941;50.800;4.342;2023-05-09T08:56:26;8.13;;;5.03;;
34832;SDS011;55941;50.800;4.342;2023-05-09T08:58:53;9.35;;;4.95;;
34832;SDS011;55941;50.800;4.342;2023-05-09T09:01:20;16.17;;;5.60;;
34832;SDS011;55941;50.800;4.342;2023-05-09T09:03:47;10.38;;;5.90;;
34832;SDS011;55941;50.800;4.342;2023-05-09T09:06:14;11.80;;;5.40;;
34832;SDS011;55941;50.800;4.342;2023-05-09T09:08:44;9.43;;;5.18;;
34832;SDS011;55941;50.800;4.342;2023-05-09T09:11:12;9.75;;;5.57;;
34832;SDS011;55941;50.800;4.342;2023-05-09T09:13:39;8.60;;;5.00;;
34832;SDS011;55941;50.800;4.342;2023-05-09T09:16:08;10.13;;;5.05;;
34832;SDS011;55941;50.800;4.342;2023-05-09T09:18:38;8.73;;;4.97;;
34832;SDS011;55941;50.800;4.342;2023-05-09T09:21:05;11.15;;;4.72;;
34832;SDS011;55941;50.800;4.342;2023-05-09T09:23:33;8.73;;;4.47;;
34832;SDS011;55941;50.800;4.342;2023-05-09T09:26:03;7.90;;;4.95;;
34832;SDS011;55941;50.800;4.342;2023-05-09T09:28:29;6.75;;;4.20;;
34832;SDS011;55941;50.800;4.342;2023-05-09T09:30:56;7.28;;;4.32;;
34832;SDS011;55941;50.800;4.342;2023-05-09T09:33:25;8.23;;;4.35;;
34832;SDS011;55941;50.800;4.342;2023-05-09T09:35:54;14.20;;;4.53;;
34832;SDS011;55941;50.800;4.342;2023-05-09T09:38:21;7.30;;;4.25;;
34832;SDS011;55941;50.800;4.342;2023-05-09T09:43:30;14.35;;;4.57;;
34832;SDS011;55941;50.800;4.342;2023-05-09T09:45:56;10.38;;;4.75;;
34832;SDS011;55941;50.800;4.342;2023-05-09T09:48:28;11.25;;;5.05;;
34832;SDS011;55941;50.800;4.342;2023-05-09T09:53:28;12.00;;;4.82;;
34832;SDS011;55941;50.800;4.342;2023-05-09T09:55:56;18.67;;;4.65;;
34832;SDS011;55941;50.800;4.342;2023-05-09T09:58:23;12.68;;;5.38;;
34832;SDS011;55941;50.800;4.342;2023-05-09T10:01:08;11.52;;;5.18;;
34832;SDS011;55941;50.800;4.342;2023-05-09T10:03:41;7.55;;;4.40;;
34832;SDS011;55941;50.800;4.342;2023-05-09T10:06:13;14.57;;;5.00;;
34832;SDS011;55941;50.800;4.342;2023-05-09T10:08:40;9.90;;;4.80;;
34832;SDS011;55941;50.800;4.342;2023-05-09T10:14:44;8.25;;;5.07;;
34832;SDS011;55941;50.800;4.342;2023-05-09T10:17:14;7.88;;;4.78;;
34832;SDS011;55941;50.800;4.342;2023-05-09T10:19:43;5.38;;;4.45;;
34832;SDS011;55941;50.800;4.342;2023-05-09T10:22:10;8.55;;;4.57;;
34832;SDS011;55941;50.800;4.342;2023-05-09T10:24:55;5.93;;;4.05;;
34832;SDS011;55941;50.800;4.342;2023-05-09T10:27:31;5.43;;;3.83;;
34832;SDS011;55941;50.800;4.342;2023-05-09T10:35:24;15.68;;;4.93;;
34832;SDS011;55941;50.800;4.342;2023-05-09T10:37:54;12.18;;;4.97;;
34832;SDS011;55941;50.800;4.342;2023-05-09T10:40:21;8.60;;;5.45;;
34832;SDS011;55941;50.800;4.342;2023-05-09T10:42:47;8.52;;;4.57;;
34832;SDS011;55941;50.800;4.342;2023-05-09T10:45:14;15.20;;;4.82;;
34832;SDS011;55941;50.800;4.342;2023-05-09T10:47:40;8.30;;;5.15;;
34832;SDS011;55941;50.800;4.342;2023-05-09T10:50:08;9.25;;;5.28;;
34832;SDS011;55941;50.800;4.342;2023-05-09T10:55:46;9.07;;;4.43;;
34832;SDS011;55941;50.800;4.342;2023-05-09T10:58:25;11.82;;;4.82;;
34832;SDS011;55941;50.800;4.342;2023-05-09T11:00:58;8.20;;;4.95;;
34832;SDS011;55941;50.800;4.342;2023-05-09T11:03:26;8.88;;;4.68;;
34832;SDS011;55941;50.800;4.342;2023-05-09T11:05:54;11.15;;;5.13;;
34832;SDS011;55941;50.800;4.342;2023-05-09T11:10:52;12.63;;;4.63;;
34832;SDS011;55941;50.800;4.342;2023-05-09T11:13:20;8.80;;;5.00;;
34832;SDS011;55941;50.800;4.342;2023-05-09T11:18:32;10.65;;;4.95;;
34832;SDS011;55941;50.800;4.342;2023-05-09T11:20:58;11.00;;;6.15;;
34832;SDS011;55941;50.800;4.342;2023-05-09T11:23:31;13.85;;;5.65;;
34832;SDS011;55941;50.800;4.342;2023-05-09T11:26:06;14.52;;;5.88;;
34832;SDS011;55941;50.800;4.342;2023-05-09T11:28:34;14.95;;;5.80;;
34832;SDS011;55941;50.800;4.342;2023-05-09T11:31:34;12.75;;;5.28;;
34832;SDS011;55941;50.800;4.342;2023-05-09T11:33:54;13.35;;;5.18;;
34832;SDS011;55941;50.800;4.342;2023-05-09T11:36:29;16.65;;;5.10;;
34832;SDS011;55941;50.800;4.342;2023-05-09T11:39:08;22.45;;;4.70;;
34832;SDS011;55941;50.800;4.342;2023-05-09T11:41:42;10.27;;;5.18;;
34832;SDS011;55941;50.800;4.342;2023-05-09T11:44:15;10.93;;;4.82;;
34832;SDS011;55941;50.800;4.342;2023-05-09T11:46:43;10.13;;;5.18;;
34832;SDS011;55941;50.800;4.342;2023-05-09T11:49:10;10.40;;;5.25;;
34832;SDS011;55941;50.800;4.342;2023-05-09T11:51:36;13.65;;;5.35;;
34832;SDS011;55941;50.800;4.342;2023-05-09T11:54:03;8.18;;;5.00;;
34832;SDS011;55941;50.800;4.342;2023-05-09T11:56:31;14.70;;;5.43;;
34832;SDS011;55941;50.800;4.342;2023-05-09T11:58:58;10.90;;;6.10;;
34832;SDS011;55941;50.800;4.342;2023-05-09T12:01:24;9.25;;;5.40;;
34832;SDS011;55941;50.800;4.342;2023-05-09T12:03:50;8.38;;;4.80;;
34832;SDS011;55941;50.800;4.342;2023-05-09T12:06:17;8.48;;;3.97;;
34832;SDS011;55941;50.800;4.342;2023-05-09T12:08:43;7.03;;;3.70;;
34832;SDS011;55941;50.800;4.342;2023-05-09T12:11:10;9.88;;;3.70;;
34832;SDS011;55941;50.800;4.342;2023-05-09T12:13:45;7.40;;;3.08;;
34832;SDS011;55941;50.800;4.342;2023-05-09T12:16:17;5.93;;;3.20;;
34832;SDS011;55941;50.800;4.342;2023-05-09T12:18:50;4.93;;;3.20;;
34832;SDS011;55941;50.800;4.342;2023-05-09T12:21:18;7.65;;;3.50;;
34832;SDS011;55941;50.800;4.342;2023-05-09T12:23:45;5.28;;;3.03;;
34832;SDS011;55941;50.800;4.342;2023-05-09T12:26:11;7.60;;;3.63;;
34832;SDS011;55941;50.800;4.342;2023-05-09T12:28:38;6.18;;;3.35;;
34832;SDS011;55941;50.800;4.342;2023-05-09T12:31:04;6.10;;;2.92;;
34832;SDS011;55941;50.800;4.342;2023-05-09T12:33:32;12.13;;;2.50;;
34832;SDS011;55941;50.800;4.342;2023-05-09T12:38:27;2.75;;;2.10;;
34832;SDS011;55941;50.800;4.342;2023-05-09T12:41:00;5.10;;;2.20;;
34832;SDS011;55941;50.800;4.342;2023-05-09T12:43:34;3.25;;;1.70;;
34832;SDS011;55941;50.800;4.342;2023-05-09T12:46:02;5.93;;;2.30;;
34832;SDS011;55941;50.800;4.342;2023-05-09T12:48:29;6.00;;;2.65;;
34832;SDS011;55941;50.800;4.342;2023-05-09T12:51:05;5.73;;;2.67;;
34832;SDS011;55941;50.800;4.342;2023-05-09T12:53:35;6.97;;;2.65;;
34832;SDS011;55941;50.800;4.342;2023-05-09T12:56:12;7.07;;;2.70;;
34832;SDS011;55941;50.800;4.342;2023-05-09T12:58:49;8.27;;;2.92;;
34832;SDS011;55941;50.800;4.342;2023-05-09T13:01:19;12.13;;;3.05;;
34832;SDS011;55941;50.800;4.342;2023-05-09T13:03:51;4.32;;;2.70;;
34832;SDS011;55941;50.800;4.342;2023-05-09T13:06:24;6.68;;;2.70;;
34832;SDS011;55941;50.800;4.342;2023-05-09T13:08:56;18.75;;;3.03;;
34832;SDS011;55941;50.800;4.342;2023-05-09T13:11:24;6.10;;;2.70;;
34832;SDS011;55941;50.800;4.342;2023-05-09T13:13:50;9.95;;;3.10;;
34832;SDS011;55941;50.800;4.342;2023-05-09T13:16:18;13.52;;;2.90;;
34832;SDS011;55941;50.800;4.342;2023-05-09T13:18:45;15.38;;;2.65;;
34832;SDS011;55941;50.800;4.342;2023-05-09T13:21:11;4.10;;;2.60;;
34832;SDS011;55941;50.800;4.342;2023-05-09T13:23:37;5.47;;;2.67;;
34832;SDS011;55941;50.800;4.342;2023-05-09T13:26:03;6.68;;;3.03;;
34832;SDS011;55941;50.800;4.342;2023-05-09T13:28:29;7.72;;;2.70;;
34832;SDS011;55941;50.800;4.342;2023-05-09T13:30:56;12.73;;;3.10;;
34832;SDS011;55941;50.800;4.342;2023-05-09T13:33:23;6.53;;;3.22;;
34832;SDS011;55941;50.800;4.342;2023-05-09T13:35:49;2.67;;;1.92;;
34832;SDS011;55941;50.800;4.342;2023-05-09T13:38:15;5.13;;;2.20;;
34832;SDS011;55941;50.800;4.342;2023-05-09T13:40:41;18.50;;;3.33;;
34832;SDS011;55941;50.800;4.342;2023-05-09T13:43:07;13.40;;;1.92;;
34832;SDS011;55941;50.800;4.342;2023-05-09T13:45:33;7.75;;;2.70;;
34832;SDS011;55941;50.800;4.342;2023-05-09T13:47:59;9.10;;;2.20;;
34832;SDS011;55941;50.800;4.342;2023-05-09T13:50:25;7.50;;;1.92;;
34832;SDS011;55941;50.800;4.342;2023-05-09T13:52:51;2.42;;;1.83;;
34832;SDS011;55941;50.800;4.342;2023-05-09T13:55:17;6.38;;;2.00;;
34832;SDS011;55941;50.800;4.342;2023-05-09T13:57:44;3.03;;;1.80;;
34832;SDS011;55941;50.800;4.342;2023-05-09T14:00:10;6.32;;;2.28;;
34832;SDS011;55941;50.800;4.342;2023-05-09T14:02:36;2.20;;;1.60;;
34832;SDS011;55941;50.800;4.342;2023-05-09T14:05:02;2.38;;;1.73;;
34832;SDS011;55941;50.800;4.342;2023-05-09T14:07:28;4.35;;;2.05;;
34832;SDS011;55941;50.800;4.342;2023-05-09T14:09:54;3.05;;;2.17;;
34832;SDS011;55941;50.800;4.342;2023-05-09T14:12:21;2.25;;;1.98;;
34832;SDS011;55941;50.800;4.342;2023-05-09T14:14:48;4.15;;;2.10;;
34832;SDS011;55941;50.800;4.342;2023-05-09T14:17:15;4.75;;;1.98;;
34832;SDS011;55941;50.800;4.342;2023-05-09T14:19:41;9.57;;;2.15;;
34832;SDS011;55941;50.800;4.342;2023-05-09T14:22:06;5.28;;;2.67;;
34832;SDS011;55941;50.800;4.342;2023-05-09T14:24:32;6.28;;;2.50;;
34832;SDS011;55941;50.800;4.342;2023-05-09T14:27:00;3.08;;;2.58;;
34832;SDS011;55941;50.800;4.342;2023-05-09T14:29:26;3.03;;;2.65;;
34832;SDS011;55941;50.800;4.342;2023-05-09T14:31:51;4.90;;;2.78;;
34832;SDS011;55941;50.800;4.342;2023-05-09T14:34:17;6.80;;;3.05;;
34832;SDS011;55941;50.800;4.342;2023-05-09T14:36:43;8.13;;;3.53;;
34832;SDS011;55941;50.800;4.342;2023-05-09T14:39:09;5.97;;;3.65;;
34832;SDS011;55941;50.800;4.342;2023-05-09T14:41:36;9.75;;;3.65;;
34832;SDS011;55941;50.800;4.342;2023-05-09T14:44:02;4.85;;;3.58;;
34832;SDS011;55941;50.800;4.342;2023-05-09T14:46:28;11.00;;;4.00;;
34832;SDS011;55941;50.800;4.342;2023-05-09T14:48:54;7.80;;;4.18;;
34832;SDS011;55941;50.800;4.342;2023-05-09T14:51:21;11.05;;;4.13;;
34832;SDS011;55941;50.800;4.342;2023-05-09T14:53:47;6.18;;;4.15;;
34832;SDS011;55941;50.800;4.342;2023-05-09T14:56:14;6.45;;;3.42;;
34832;SDS011;55941;50.800;4.342;2023-05-09T14:58:40;23.77;;;3.53;;
34832;SDS011;55941;50.800;4.342;2023-05-09T15:01:07;7.72;;;3.35;;
34832;SDS011;55941;50.800;4.342;2023-05-09T15:03:33;9.45;;;3.47;;
34832;SDS011;55941;50.800;4.342;2023-05-09T15:05:59;9.45;;;4.00;;
34832;SDS011;55941;50.800;4.342;2023-05-09T15:08:26;3.85;;;2.92;;
34832;SDS011;55941;50.800;4.342;2023-05-09T15:10:51;4.80;;;2.50;;
34832;SDS011;55941;50.800;4.342;2023-05-09T15:13:17;5.20;;;2.83;;
34832;SDS011;55941;50.800;4.342;2023-05-09T15:15:43;3.65;;;2.90;;
34832;SDS011;55941;50.800;4.342;2023-05-09T15:18:08;12.18;;;3.20;;
34832;SDS011;55941;50.800;4.342;2023-05-09T15:20:34;6.10;;;2.85;;
34832;SDS011;55941;50.800;4.342;2023-05-09T15:23:00;5.40;;;2.67;;